Time;durP1;ratioP1;P1;durP2;ratioP2;P2;SDS_P1;SDS_P2;PMS_P1;PMS_P2;Temp;Humidity;BMP_temperature;BMP_pressure;BME280_temperature;BME280_humidity;BME280_pressure;Samples;Min_cycle;Max_cycle;Signal;HPM_P1;HPM_P2
2022/12/03 00:01:25;;;;;;;;;;;;;;;;;;5046846;28;19913;-76
2022/12/03 00:04:12;;;;;;;;;;;;;;;;;;5040053;28;19942;-75
2022/12/03 00:06:58;;;;;;;;;;;;;;;;;;5042027;28;19920;-76
2022/12/03 00:09:45;;;;;;;;;;;;;;;;;;5039706;28;19917;-74
2022/12/03 00:12:31;;;;;;;;;;;;;;;;;;5042301;28;19919;-76
2022/12/03 00:15:18;;;;;;;;;;;;;;;;;;5040527;28;20207;-77
2022/12/03 00:18:04;;;;;;;;;;;;;;;;;;5051585;28;19920;-76
2022/12/03 00:20:51;;;;;;;;;;;;;;;;;;5030088;28;19928;-75
2022/12/03 00:23:37;;;;;;;;;;;;;;;;;;5032613;28;19948;-77
2022/12/03 00:26:23;;;;;;;;;;;;;;;;;;5040928;28;19913;-77
2022/12/03 00:29:10;;;;;;;;;;;;;;;;;;5040705;28;19913;-75
2022/12/03 00:31:56;;;;;;;;;;;;;;;;;;5037508;28;20382;-75
2022/12/03 00:34:43;;;;;;;;;;;;;;;;;;5032105;28;19913;-77
2022/12/03 00:37:29;;;;;;;;;;;;;;;;;;5041639;28;19919;-76
2022/12/03 00:40:16;;;;;;;;;;;;;;;;;;5032774;28;19908;-76
2022/12/03 00:43:02;;;;;;;;;;;;;;;;;;5045411;28;19921;-77
2022/12/03 00:45:49;;;;;;;;;;;;;;;;;;5040927;28;19917;-76
2022/12/03 00:48:35;;;;;;;;;;;;;;;;;;5033776;28;19940;-76
2022/12/03 00:51:22;;;;;;;;;;;;;;;;;;5041431;28;19927;-75
2022/12/03 00:54:08;;;;;;;;;;;;;;;;;;5033699;28;19909;-76
2022/12/03 00:56:55;;;;;;;;;;;;;;;;;;5035168;28;19921;-76
2022/12/03 00:59:41;;;;;;;;;;;;;;;;;;5030046;28;19927;-75
2022/12/03 01:02:28;;;;;;;;;;;;;;;;;;5031759;28;19912;-77
2022/12/03 01:05:14;;;;;;;;;;;;;;;;;;5028204;28;19929;-77
2022/12/03 01:08:01;;;;;;;;;;;;;;;;;;5026022;28;19912;-76
2022/12/03 01:10:47;;;;;;;;;;;;;;;;;;5032808;28;19921;-74
2022/12/03 01:13:33;;;;;;;;;;;;;;;;;;5036556;28;19936;-74
2022/12/03 01:16:20;;;;;;;;;;;;;;;;;;5032043;28;19940;-76
2022/12/03 01:19:06;;;;;;;;;;;;;;;;;;5028085;28;19920;-76
2022/12/03 01:21:54;;;;;;;;;;;;;;;;;;5044586;28;19925;-77
2022/12/03 01:24:40;;;;;;;;;;;;;;;;;;5029971;28;19921;-76
2022/12/03 01:27:27;;;;;;;;;;;;;;;;;;5030116;28;19917;-75
2022/12/03 01:30:13;;;;;;;;;;;;;;;;;;5035136;28;19917;-78
2022/12/03 01:33:00;;;;;;;;;;;;;;;;;;5027356;28;19913;-75
2022/12/03 01:35:46;;;;;;;;;;;;;;;;;;5034373;28;19916;-76
2022/12/03 01:38:33;;;;;;;;;;;;;;;;;;5032911;28;19909;-74
2022/12/03 01:41:19;;;;;;;;;;;;;;;;;;5036353;28;19914;-74
2022/12/03 01:44:06;;;;;;;;;;;;;;;;;;5037477;28;19927;-76
2022/12/03 01:46:52;;;;;;;;;;;;;;;;;;5048764;28;19923;-74
2022/12/03 01:49:39;;;;;;;;;;;;;;;;;;5034100;28;19964;-75
2022/12/03 01:52:25;;;;;;;;;;;;;;;;;;5045981;28;20367;-77
2022/12/03 01:55:12;;;;;;;;;;;;;;;;;;5045574;28;19917;-76
2022/12/03 01:57:58;;;;;;;;;;;;;;;;;;5041161;28;19913;-79
2022/12/03 02:00:45;;;;;;;;;;;;;;;;;;5046590;28;19920;-76
2022/12/03 02:03:31;;;;;;;;;;;;;;;;;;5041478;28;19921;-75
2022/12/03 02:06:17;;;;;;;;;;;;;;;;;;5042138;28;20007;-74
2022/12/03 02:09:07;;;;;;;;;;;;;;;;;;5042943;28;19928;-76
2022/12/03 02:11:53;;;;;;;;;;;;;;;;;;5036860;28;20000;-75
2022/12/03 02:14:40;;;;;;;;;;;;;;;;;;5037796;28;19920;-75
2022/12/03 02:17:26;;;;;;;;;;;;;;;;;;5043306;28;19912;-76
2022/12/03 02:20:13;;;;;;;;;;;;;;;;;;5040348;28;19921;-77
2022/12/03 02:22:59;;;;;;;;;;;;;;;;;;5036222;28;19909;-76
2022/12/03 02:25:46;;;;;;;;;;;;;;;;;;5038511;28;19917;-77
2022/12/03 02:28:33;;;;;;;;;;;;;;;;;;5027891;28;19917;-75
2022/12/03 02:31:19;;;;;;;;;;;;;;;;;;5032824;28;19913;-76
2022/12/03 02:34:06;;;;;;;;;;;;;;;;;;5032017;28;19947;-76
2022/12/03 02:36:52;;;;;;;;;;;;;;;;;;5043182;28;20356;-75
2022/12/03 02:39:39;;;;;;;;;;;;;;;;;;5043198;28;19921;-77
2022/12/03 02:42:34;;;;;;;;;;;;;;;;;;5029632;28;19913;-75
2022/12/03 02:45:21;;;;;;;;;;;;;;;;;;5038114;28;19920;-74
2022/12/03 02:48:07;;;;;;;;;;;;;;;;;;5039341;28;19913;-76
2022/12/03 02:50:53;;;;;;;;;;;;;;;;;;5043049;28;19939;-75
2022/12/03 02:53:41;;;;;;;;;;;;;;;;;;5032304;28;19909;-77
2022/12/03 02:56:27;;;;;;;;;;;;;;;;;;5046225;28;19924;-78
2022/12/03 02:59:14;;;;;;;;;;;;;;;;;;5031784;28;19924;-75
2022/12/03 03:02:00;;;;;;;;;;;;;;;;;;5034814;28;20379;-76
2022/12/03 03:04:47;;;;;;;;;;;;;;;;;;5041664;28;20399;-75
2022/12/03 03:07:33;;;;;;;;;;;;;;;;;;5031643;28;19917;-77
2022/12/03 03:10:19;;;;;;;;;;;;;;;;;;5043506;28;20368;-77
2022/12/03 03:13:06;;;;;;;;;;;;;;;;;;5043665;28;19912;-75
2022/12/03 03:15:52;;;;;;;;;;;;;;;;;;5024396;28;19912;-76
2022/12/03 03:18:39;;;;;;;;;;;;;;;;;;5032445;28;19924;-77
2022/12/03 03:21:25;;;;;;;;;;;;;;;;;;5040547;28;19959;-76
2022/12/03 03:24:12;;;;;;;;;;;;;;;;;;5042267;28;20368;-76
2022/12/03 03:26:58;;;;;;;;;;;;;;;;;;5046784;28;19913;-76
2022/12/03 03:29:45;;;;;;;;;;;;;;;;;;5031962;28;20410;-77
2022/12/03 03:32:31;;;;;;;;;;;;;;;;;;5045129;28;19927;-77
2022/12/03 03:35:18;;;;;;;;;;;;;;;;;;5037665;28;20231;-77
2022/12/03 03:38:04;;;;;;;;;;;;;;;;;;5040677;28;19919;-78
2022/12/03 03:40:51;;;;;;;;;;;;;;;;;;5035713;28;19913;-76
2022/12/03 03:43:37;;;;;;;;;;;;;;;;;;5044047;28;19927;-76
2022/12/03 03:46:24;;;;;;;;;;;;;;;;;;5035275;28;20376;-76
2022/12/03 03:49:10;;;;;;;;;;;;;;;;;;5028460;28;19916;-77
2022/12/03 03:51:57;;;;;;;;;;;;;;;;;;5039487;28;20458;-77
2022/12/03 03:54:43;;;;;;;;;;;;;;;;;;5029158;28;19916;-74
2022/12/03 03:57:29;;;;;;;;;;;;;;;;;;5037379;28;20364;-76
2022/12/03 04:00:16;;;;;;;;;;;;;;;;;;5030983;28;19921;-77
2022/12/03 04:03:02;;;;;;;;;;;;;;;;;;5031416;28;19913;-74
2022/12/03 04:05:49;;;;;;;;;;;;;;;;;;5035777;28;19916;-77
2022/12/03 04:08:45;;;;;;;;;;;;;;;;;;5034294;28;20281;-77
2022/12/03 04:14:37;;;;;;;;;;;;;;;;;;5035842;28;19913;-74
2022/12/03 04:17:23;;;;;;;;;;;;;;;;;;5030501;28;20315;-75
2022/12/03 04:20:10;;;;;;;;;;;;;;;;;;5026996;28;20423;-73
2022/12/03 04:22:56;;;;;;;;;;;;;;;;;;5038741;28;19916;-74
2022/12/03 04:28:48;;;;;;;;;;;;;;;;;;5042647;28;19917;-74
2022/12/03 04:37:47;;;;;;;;;;;;;;;;;;5042905;28;19920;-77
2022/12/03 04:44:31;;;;;;;;;;;;;;;;;;5047033;28;19928;-76
2022/12/03 04:46:45;;;;;;;;;;;;;;;;;;5038490;28;19913;-76
2022/12/03 04:49:32;;;;;;;;;;;;;;;;;;5040222;28;19917;-76
2022/12/03 04:52:18;;;;;;;;;;;;;;;;;;5031503;28;19917;-75
2022/12/03 04:55:05;;;;;;;;;;;;;;;;;;5015162;28;19917;-76
2022/12/03 04:57:51;;;;;;;;;;;;;;;;;;5033162;28;19913;-77
2022/12/03 05:00:38;;;;;;;;;;;;;;;;;;5033484;28;20288;-75
2022/12/03 05:03:24;;;;;;;;;;;;;;;;;;5038491;28;19920;-76
2022/12/03 05:06:11;;;;;;;;;;;;;;;;;;5044183;28;19912;-78
2022/12/03 05:08:57;;;;;;;;;;;;;;;;;;5047916;28;19932;-78
2022/12/03 05:11:43;;;;;;;;;;;;;;;;;;5049646;28;19915;-74
2022/12/03 05:14:30;;;;;;;;;;;;;;;;;;5045994;28;19978;-77
2022/12/03 05:17:16;;;;;;;;;;;;;;;;;;5040892;28;20418;-75
2022/12/03 05:23:28;;;;;;;;;;;;;;;;;;4942222;29;19927;-76
2022/12/03 05:26:14;;;;;;;;;;;;;;;;;;4952716;28;19918;-77
2022/12/03 05:29:01;;;;;;;;;;;;;;;;;;5037245;28;19912;-76
2022/12/03 05:31:47;;;;;;;;;;;;;;;;;;5030909;28;20408;-75
2022/12/03 05:34:34;;;;;;;;;;;;;;;;;;5032707;28;19913;-76
2022/12/03 05:37:20;;;;;;;;;;;;;;;;;;5042743;28;19909;-77
2022/12/03 05:40:07;;;;;;;;;;;;;;;;;;5036661;28;19913;-75
2022/12/03 05:42:53;;;;;;;;;;;;;;;;;;5034551;28;19936;-77
2022/12/03 05:45:40;;;;;;;;;;;;;;;;;;5038754;28;19917;-78
2022/12/03 05:48:26;;;;;;;;;;;;;;;;;;5031862;28;19919;-77
2022/12/03 05:51:13;;;;;;;;;;;;;;;;;;5030718;28;19913;-77
2022/12/03 05:53:59;;;;;;;;;;;;;;;;;;5029188;28;19921;-77
2022/12/03 05:56:46;;;;;;;;;;;;;;;;;;5046660;28;19909;-75
2022/12/03 05:59:33;;;;;;;;;;;;;;;;;;5045008;28;20011;-77
2022/12/03 06:02:19;;;;;;;;;;;;;;;;;;5041481;28;19924;-75
2022/12/03 06:05:06;;;;;;;;;;;;;;;;;;5043284;28;20383;-76
2022/12/03 06:07:52;;;;;;;;;;;;;;;;;;5038832;28;19920;-76
2022/12/03 06:10:39;;;;;;;;;;;;;;;;;;5037588;28;19924;-77
2022/12/03 06:13:25;;;;;;;;;;;;;;;;;;5036109;28;19924;-76
2022/12/03 06:16:11;;;;;;;;;;;;;;;;;;5039702;28;19917;-76
2022/12/03 06:18:58;;;;;;;;;;;;;;;;;;5031913;28;20365;-77
2022/12/03 06:21:44;;;;;;;;;;;;;;;;;;5047310;28;19924;-75
2022/12/03 06:24:31;;;;;;;;;;;;;;;;;;5046632;28;19920;-76
2022/12/03 06:27:17;;;;;;;;;;;;;;;;;;5040785;28;19919;-74
2022/12/03 06:30:04;;;;;;;;;;;;;;;;;;5047059;28;19924;-75
2022/12/03 06:32:50;;;;;;;;;;;;;;;;;;5046478;28;19920;-74
2022/12/03 06:35:37;;;;;;;;;;;;;;;;;;5041102;28;20693;-77
2022/12/03 06:38:23;;;;;;;;;;;;;;;;;;5046875;28;19912;-76
2022/12/03 06:41:10;;;;;;;;;;;;;;;;;;5041540;28;19920;-76
2022/12/03 06:43:56;;;;;;;;;;;;;;;;;;5041038;28;20429;-76
2022/12/03 06:46:43;;;;;;;;;;;;;;;;;;5039438;28;19909;-76
2022/12/03 06:49:29;;;;;;;;;;;;;;;;;;5040166;28;19924;-76
2022/12/03 06:52:16;;;;;;;;;;;;;;;;;;5045409;28;20340;-76
2022/12/03 06:55:02;;;;;;;;;;;;;;;;;;5034477;28;19913;-77
2022/12/03 06:57:48;;;;;;;;;;;;;;;;;;5037932;28;19909;-76
2022/12/03 07:00:35;;;;;;;;;;;;;;;;;;5039098;28;19919;-77
2022/12/03 07:03:21;;;;;;;;;;;;;;;;;;5028162;28;19917;-74
2022/12/03 07:06:08;;;;;;;;;;;;;;;;;;5022993;28;20241;-76
2022/12/03 07:08:54;;;;;;;;;;;;;;;;;;5034615;28;19936;-77
2022/12/03 07:11:41;;;;;;;;;;;;;;;;;;5048116;28;19927;-78
2022/12/03 07:14:27;;;;;;;;;;;;;;;;;;5040123;28;19920;-79
2022/12/03 07:17:16;;;;;;;;;;;;;;;;;;5037294;28;20371;-78
2022/12/03 07:20:03;;;;;;;;;;;;;;;;;;5039468;28;19925;-77
2022/12/03 07:22:50;;;;;;;;;;;;;;;;;;5042282;28;19917;-77
2022/12/03 07:25:36;;;;;;;;;;;;;;;;;;5041110;28;20036;-78
2022/12/03 07:28:23;;;;;;;;;;;;;;;;;;5030051;28;19913;-76
2022/12/03 07:31:09;;;;;;;;;;;;;;;;;;5039331;28;19920;-74
2022/12/03 07:33:55;;;;;;;;;;;;;;;;;;5043412;28;20289;-74
2022/12/03 07:36:42;;;;;;;;;;;;;;;;;;5041220;28;19917;-74
2022/12/03 07:39:29;;;;;;;;;;;;;;;;;;5040285;28;19915;-74
2022/12/03 07:42:15;;;;;;;;;;;;;;;;;;5041466;28;20548;-74
2022/12/03 07:45:01;;;;;;;;;;;;;;;;;;5036423;28;19921;-74
2022/12/03 07:47:48;;;;;;;;;;;;;;;;;;5040295;28;19926;-74
2022/12/03 07:50:34;;;;;;;;;;;;;;;;;;5048286;28;20289;-74
2022/12/03 07:53:21;;;;;;;;;;;;;;;;;;5045227;28;19909;-73
2022/12/03 07:56:07;;;;;;;;;;;;;;;;;;5042579;28;19920;-73
2022/12/03 07:58:54;;;;;;;;;;;;;;;;;;5045861;28;19909;-73
2022/12/03 08:01:40;;;;;;;;;;;;;;;;;;5031758;28;19920;-73
2022/12/03 08:04:27;;;;;;;;;;;;;;;;;;5041529;28;20663;-73
2022/12/03 08:07:13;;;;;;;;;;;;;;;;;;5039133;28;19920;-74
2022/12/03 08:10:00;;;;;;;;;;;;;;;;;;5028845;28;20604;-74
2022/12/03 08:12:46;;;;;;;;;;;;;;;;;;5014842;28;19913;-73
2022/12/03 08:15:33;;;;;;;;;;;;;;;;;;5043547;28;19919;-74
2022/12/03 08:18:19;;;;;;;;;;;;;;;;;;5033528;28;19931;-73
2022/12/03 08:21:06;;;;;;;;;;;;;;;;;;5042335;28;19932;-72
2022/12/03 08:23:52;;;;;;;;;;;;;;;;;;5037355;28;19921;-75
2022/12/03 08:26:38;;;;;;;;;;;;;;;;;;5029501;28;19913;-74
2022/12/03 08:29:25;;;;;;;;;;;;;;;;;;5035876;28;19913;-74
2022/12/03 08:32:11;;;;;;;;;;;;;;;;;;5042418;28;19912;-74
2022/12/03 08:34:58;;;;;;;;;;;;;;;;;;5034483;28;19909;-73
2022/12/03 08:37:44;;;;;;;;;;;;;;;;;;5035777;28;20320;-72
2022/12/03 08:40:31;;;;;;;;;;;;;;;;;;5034052;28;19923;-73
2022/12/03 08:43:17;;;;;;;;;;;;;;;;;;5035999;28;19913;-74
2022/12/03 08:46:04;;;;;;;;;;;;;;;;;;5040853;28;20396;-74
2022/12/03 08:48:50;;;;;;;;;;;;;;;;;;5043765;28;19913;-74
2022/12/03 08:51:37;;;;;;;;;;;;;;;;;;5038474;28;19920;-74
2022/12/03 08:54:23;;;;;;;;;;;;;;;;;;5039519;28;19916;-73
2022/12/03 08:57:10;;;;;;;;;;;;;;;;;;5026065;28;19913;-73
2022/12/03 08:59:56;;;;;;;;;;;;;;;;;;5042443;28;19917;-75
2022/12/03 09:02:43;;;;;;;;;;;;;;;;;;5036802;28;20307;-74
2022/12/03 09:05:29;;;;;;;;;;;;;;;;;;5045768;28;19928;-76
2022/12/03 09:08:16;;;;;;;;;;;;;;;;;;5021391;28;19924;-74
2022/12/03 09:11:02;;;;;;;;;;;;;;;;;;5029922;28;19917;-74
2022/12/03 09:13:49;;;;;;;;;;;;;;;;;;5035894;28;19916;-74
2022/12/03 09:16:35;;;;;;;;;;;;;;;;;;5038590;28;20459;-73
2022/12/03 09:19:21;;;;;;;;;;;;;;;;;;5043343;28;19962;-75
2022/12/03 09:22:08;;;;;;;;;;;;;;;;;;5040395;28;19924;-75
2022/12/03 09:24:54;;;;;;;;;;;;;;;;;;5038352;28;19959;-73
2022/12/03 09:27:41;;;;;;;;;;;;;;;;;;5035563;28;20585;-75
2022/12/03 09:30:27;;;;;;;;;;;;;;;;;;5038167;28;20031;-74
2022/12/03 09:33:14;;;;;;;;;;;;;;;;;;5036446;28;19935;-73
2022/12/03 09:36:00;;;;;;;;;;;;;;;;;;5042431;28;19916;-74
2022/12/03 09:38:47;;;;;;;;;;;;;;;;;;5044193;28;19936;-75
2022/12/03 09:41:33;;;;;;;;;;;;;;;;;;5039527;28;19916;-74
2022/12/03 09:44:20;;;;;;;;;;;;;;;;;;5040030;28;19929;-74
2022/12/03 09:47:06;;;;;;;;;;;;;;;;;;5041511;28;20296;-74
2022/12/03 09:49:53;;;;;;;;;;;;;;;;;;5044522;28;19909;-76
2022/12/03 09:52:39;;;;;;;;;;;;;;;;;;5041161;28;19909;-74
2022/12/03 09:55:26;;;;;;;;;;;;;;;;;;5049632;28;19939;-74
2022/12/03 09:58:12;;;;;;;;;;;;;;;;;;5047435;28;19924;-73
2022/12/03 10:00:59;;;;;;;;;;;;;;;;;;5042485;28;19928;-75
2022/12/03 10:03:45;;;;;;;;;;;;;;;;;;5042070;28;19924;-74
2022/12/03 10:06:32;;;;;;;;;;;;;;;;;;5047979;28;19916;-74
2022/12/03 10:09:19;;;;;;;;;;;;;;;;;;5043141;28;19921;-73
2022/12/03 10:12:06;;;;;;;;;;;;;;;;;;5046278;28;20455;-75
2022/12/03 10:14:52;;;;;;;;;;;;;;;;;;5032843;28;20280;-74
2022/12/03 10:17:39;;;;;;;;;;;;;;;;;;5046465;28;19917;-73
2022/12/03 10:20:25;;;;;;;;;;;;;;;;;;5044784;28;20375;-74
2022/12/03 10:23:12;;;;;;;;;;;;;;;;;;5036290;28;19920;-74
2022/12/03 10:25:58;;;;;;;;;;;;;;;;;;5040860;28;19921;-75
2022/12/03 10:28:46;;;;;;;;;;;;;;;;;;5040420;28;19940;-75
2022/12/03 10:31:32;;;;;;;;;;;;;;;;;;5042169;28;19916;-75
2022/12/03 10:34:19;;;;;;;;;;;;;;;;;;5047615;28;20437;-80
2022/12/03 10:37:05;;;;;;;;;;;;;;;;;;5046399;28;19909;-73
2022/12/03 10:39:52;;;;;;;;;;;;;;;;;;5036059;28;19917;-75
2022/12/03 10:42:38;;;;;;;;;;;;;;;;;;5048066;28;19924;-75
2022/12/03 10:45:25;;;;;;;;;;;;;;;;;;5041398;28;20004;-73
2022/12/03 10:48:11;;;;;;;;;;;;;;;;;;5042761;28;19919;-74
2022/12/03 10:50:58;;;;;;;;;;;;;;;;;;5044322;28;19913;-74
2022/12/03 10:53:44;;;;;;;;;;;;;;;;;;5031301;28;20297;-75
2022/12/03 10:56:31;;;;;;;;;;;;;;;;;;5041882;28;19912;-74
2022/12/03 10:59:17;;;;;;;;;;;;;;;;;;5040874;28;20363;-75
2022/12/03 11:02:04;;;;;;;;;;;;;;;;;;5043788;28;19917;-74
2022/12/03 11:04:50;;;;;;;;;;;;;;;;;;5041705;28;19962;-75
2022/12/03 11:07:37;;;;;;;;;;;;;;;;;;5036365;28;19920;-76
2022/12/03 11:10:23;;;;;;;;;;;;;;;;;;5030525;28;20388;-75
2022/12/03 11:13:10;;;;;;;;;;;;;;;;;;5038302;28;19921;-78
2022/12/03 11:15:56;;;;;;;;;;;;;;;;;;5042979;28;19916;-77
2022/12/03 11:18:43;;;;;;;;;;;;;;;;;;5050250;28;19920;-79
2022/12/03 11:21:29;;;;;;;;;;;;;;;;;;5041435;28;20439;-79
2022/12/03 11:24:17;;;;;;;;;;;;;;;;;;5039833;28;20372;-78
2022/12/03 11:27:03;;;;;;;;;;;;;;;;;;5040696;28;19939;-78
2022/12/03 11:29:50;;;;;;;;;;;;;;;;;;5048343;28;19917;-79
2022/12/03 11:32:52;;;;;;;;;;;;;;;;;;5009839;28;20380;-78
2022/12/03 11:35:39;;;;;;;;;;;;;;;;;;5042267;28;19927;-82
2022/12/03 11:38:25;;;;;;;;;;;;;;;;;;5052260;28;19916;-80
2022/12/03 11:41:12;;;;;;;;;;;;;;;;;;5042740;28;19917;-79
2022/12/03 11:43:58;;;;;;;;;;;;;;;;;;5037166;28;19932;-79
2022/12/03 11:46:45;;;;;;;;;;;;;;;;;;5052415;28;19923;-79
2022/12/03 11:49:31;;;;;;;;;;;;;;;;;;5036704;28;19917;-78
2022/12/03 11:52:18;;;;;;;;;;;;;;;;;;5036460;28;19916;-79
2022/12/03 11:55:04;;;;;;;;;;;;;;;;;;5035068;28;19909;-79
2022/12/03 11:57:51;;;;;;;;;;;;;;;;;;5040382;28;19943;-79
2022/12/03 12:00:37;;;;;;;;;;;;;;;;;;5035573;28;19913;-79
2022/12/03 12:03:24;;;;;;;;;;;;;;;;;;5030967;28;19916;-79
2022/12/03 12:06:10;;;;;;;;;;;;;;;;;;5030220;28;20469;-80
2022/12/03 12:08:57;;;;;;;;;;;;;;;;;;5036037;28;19967;-78
2022/12/03 12:11:44;;;;;;;;;;;;;;;;;;5045352;28;19916;-78
2022/12/03 12:14:31;;;;;;;;;;;;;;;;;;5042944;28;19917;-77
2022/12/03 12:17:17;;;;;;;;;;;;;;;;;;5038082;28;19923;-79
2022/12/03 12:20:04;;;;;;;;;;;;;;;;;;5021099;28;19925;-78
2022/12/03 12:22:50;;;;;;;;;;;;;;;;;;5029469;28;19917;-80
2022/12/03 12:25:37;;;;;;;;;;;;;;;;;;5030798;28;19920;-80
2022/12/03 12:28:23;;;;;;;;;;;;;;;;;;5033352;28;19913;-79
2022/12/03 12:31:10;;;;;;;;;;;;;;;;;;5033544;28;19936;-79
2022/12/03 12:33:56;;;;;;;;;;;;;;;;;;5030961;28;20296;-79
2022/12/03 12:36:43;;;;;;;;;;;;;;;;;;5050995;28;19912;-80
2022/12/03 12:39:30;;;;;;;;;;;;;;;;;;5039045;28;19913;-78
2022/12/03 12:42:16;;;;;;;;;;;;;;;;;;5046128;28;19912;-78
2022/12/03 12:45:03;;;;;;;;;;;;;;;;;;5036806;28;19927;-78
2022/12/03 12:47:49;;;;;;;;;;;;;;;;;;5046171;28;19916;-78
2022/12/03 12:50:36;;;;;;;;;;;;;;;;;;5035979;28;20035;-80
2022/12/03 12:53:25;;;;;;;;;;;;;;;;;;5034923;28;19927;-80
2022/12/03 12:56:11;;;;;;;;;;;;;;;;;;5019262;28;19917;-79
2022/12/03 12:58:58;;;;;;;;;;;;;;;;;;5021981;28;20403;-80
2022/12/03 13:01:44;;;;;;;;;;;;;;;;;;5032065;28;20542;-80
2022/12/03 13:04:31;;;;;;;;;;;;;;;;;;5033617;28;19932;-80
2022/12/03 13:07:18;;;;;;;;;;;;;;;;;;5017284;28;19920;-79
2022/12/03 13:10:04;;;;;;;;;;;;;;;;;;5039328;28;19920;-79
2022/12/03 13:12:54;;;;;;;;;;;;;;;;;;5031038;28;19913;-77
2022/12/03 13:15:40;;;;;;;;;;;;;;;;;;5034195;28;19916;-80
2022/12/03 13:18:27;;;;;;;;;;;;;;;;;;5041485;28;20295;-79
2022/12/03 13:21:13;;;;;;;;;;;;;;;;;;5042844;28;20385;-77
2022/12/03 13:24:00;;;;;;;;;;;;;;;;;;5036898;28;19935;-78
2022/12/03 13:26:46;;;;;;;;;;;;;;;;;;5040078;28;19921;-79
2022/12/03 13:29:33;;;;;;;;;;;;;;;;;;5033801;28;20343;-78
2022/12/03 13:32:19;;;;;;;;;;;;;;;;;;5046554;28;19913;-80
2022/12/03 13:35:06;;;;;;;;;;;;;;;;;;5058447;28;19967;-79
2022/12/03 13:37:52;;;;;;;;;;;;;;;;;;5056198;28;19913;-79
2022/12/03 13:40:39;;;;;;;;;;;;;;;;;;5039324;28;20716;-79
2022/12/03 13:43:25;;;;;;;;;;;;;;;;;;5040054;28;20715;-78
2022/12/03 13:46:11;;;;;;;;;;;;;;;;;;5039795;28;19940;-79
2022/12/03 13:48:58;;;;;;;;;;;;;;;;;;5051147;28;19920;-78
2022/12/03 13:51:46;;;;;;;;;;;;;;;;;;5037065;28;19913;-77
2022/12/03 13:54:35;;;;;;;;;;;;;;;;;;5044810;28;19940;-79
2022/12/03 13:57:22;;;;;;;;;;;;;;;;;;5046635;28;19927;-80
2022/12/03 14:00:09;;;;;;;;;;;;;;;;;;5043120;28;19916;-78
2022/12/03 14:02:56;;;;;;;;;;;;;;;;;;5029823;28;19913;-79
2022/12/03 14:05:42;;;;;;;;;;;;;;;;;;5032869;28;20000;-80
2022/12/03 14:08:29;;;;;;;;;;;;;;;;;;5035778;28;20552;-79
2022/12/03 14:14:23;;;;;;;;;;;;;;;;;;5032683;28;19920;-81
2022/12/03 14:17:10;;;;;;;;;;;;;;;;;;5029156;28;19912;-82
2022/12/03 14:19:56;;;;;;;;;;;;;;;;;;5040193;28;19996;-80
2022/12/03 14:22:43;;;;;;;;;;;;;;;;;;5032759;28;20438;-80
2022/12/03 14:25:29;;;;;;;;;;;;;;;;;;5026814;28;19921;-79
2022/12/03 14:28:16;;;;;;;;;;;;;;;;;;5038355;28;20591;-79
2022/12/03 14:31:02;;;;;;;;;;;;;;;;;;5040499;28;19919;-80
2022/12/03 14:33:49;;;;;;;;;;;;;;;;;;5038842;28;19923;-79
2022/12/03 14:36:35;;;;;;;;;;;;;;;;;;5032473;28;20284;-78
2022/12/03 14:39:22;;;;;;;;;;;;;;;;;;5028555;28;19917;-80
2022/12/03 14:42:15;;;;;;;;;;;;;;;;;;5035828;28;20002;-79
2022/12/03 14:45:02;;;;;;;;;;;;;;;;;;5034244;28;19927;-79
2022/12/03 14:47:48;;;;;;;;;;;;;;;;;;5056640;28;19925;-79
2022/12/03 14:50:34;;;;;;;;;;;;;;;;;;5034267;28;19936;-79
2022/12/03 14:53:21;;;;;;;;;;;;;;;;;;5034668;28;19913;-79
2022/12/03 14:56:07;;;;;;;;;;;;;;;;;;5046758;28;19912;-79
2022/12/03 14:58:54;;;;;;;;;;;;;;;;;;5049941;28;19913;-79
2022/12/03 15:01:40;;;;;;;;;;;;;;;;;;5040723;28;19924;-79
2022/12/03 15:04:27;;;;;;;;;;;;;;;;;;5045863;28;19984;-78
2022/12/03 15:07:13;;;;;;;;;;;;;;;;;;5039906;28;19935;-79
2022/12/03 15:10:00;;;;;;;;;;;;;;;;;;5031026;28;19913;-80
2022/12/03 15:12:46;;;;;;;;;;;;;;;;;;5034904;28;20646;-78
2022/12/03 15:15:33;;;;;;;;;;;;;;;;;;5025042;28;19939;-80
2022/12/03 15:18:19;;;;;;;;;;;;;;;;;;5041696;28;19913;-80
2022/12/03 15:21:06;;;;;;;;;;;;;;;;;;5038619;28;19945;-79
2022/12/03 15:23:52;;;;;;;;;;;;;;;;;;5037038;28;19913;-78
2022/12/03 15:26:39;;;;;;;;;;;;;;;;;;5041229;28;19921;-78
2022/12/03 15:29:25;;;;;;;;;;;;;;;;;;5037223;28;19921;-79
2022/12/03 15:32:12;;;;;;;;;;;;;;;;;;5044424;28;20459;-79
2022/12/03 15:34:58;;;;;;;;;;;;;;;;;;5032337;28;19913;-78
2022/12/03 15:37:45;;;;;;;;;;;;;;;;;;5034582;28;19912;-79
2022/12/03 15:40:31;;;;;;;;;;;;;;;;;;5042748;28;19919;-79
2022/12/03 15:43:18;;;;;;;;;;;;;;;;;;5037591;28;20421;-78
2022/12/03 15:46:04;;;;;;;;;;;;;;;;;;5032484;28;19925;-80
2022/12/03 15:48:50;;;;;;;;;;;;;;;;;;5031304;28;19936;-80
2022/12/03 15:51:37;;;;;;;;;;;;;;;;;;5033866;28;19913;-79
2022/12/03 15:54:23;;;;;;;;;;;;;;;;;;5043307;28;19919;-80
2022/12/03 15:57:10;;;;;;;;;;;;;;;;;;5044164;28;19916;-79
2022/12/03 15:59:56;;;;;;;;;;;;;;;;;;5039137;28;19917;-78
2022/12/03 16:02:43;;;;;;;;;;;;;;;;;;5039701;28;19916;-78
2022/12/03 16:05:29;;;;;;;;;;;;;;;;;;5041692;28;19931;-79
2022/12/03 16:08:16;;;;;;;;;;;;;;;;;;5039288;28;19920;-78
2022/12/03 16:11:02;;;;;;;;;;;;;;;;;;5038285;28;19921;-77
2022/12/03 16:13:49;;;;;;;;;;;;;;;;;;5036177;28;19913;-79
2022/12/03 16:16:35;;;;;;;;;;;;;;;;;;5030036;28;20284;-80
2022/12/03 16:19:22;;;;;;;;;;;;;;;;;;5028016;28;19927;-78
2022/12/03 16:22:08;;;;;;;;;;;;;;;;;;5036726;28;19932;-78
2022/12/03 16:24:55;;;;;;;;;;;;;;;;;;5031785;28;19917;-78
2022/12/03 16:27:48;;;;;;;;;;;;;;;;;;5037139;28;19913;-79
2022/12/03 16:30:35;;;;;;;;;;;;;;;;;;5033466;28;19919;-78
2022/12/03 16:33:21;;;;;;;;;;;;;;;;;;5026509;28;19924;-81
2022/12/03 16:36:08;;;;;;;;;;;;;;;;;;5037169;28;19920;-78
2022/12/03 16:39:02;;;;;;;;;;;;;;;;;;5044169;28;20288;-82
2022/12/03 16:41:48;;;;;;;;;;;;;;;;;;5032508;28;19917;-78
2022/12/03 16:47:42;;;;;;;;;;;;;;;;;;5017161;28;19917;-77
2022/12/03 16:50:28;;;;;;;;;;;;;;;;;;5027453;28;20817;-78
2022/12/03 16:53:15;;;;;;;;;;;;;;;;;;5042541;28;19920;-78
2022/12/03 16:56:01;;;;;;;;;;;;;;;;;;5013938;28;19924;-81
2022/12/03 16:58:48;;;;;;;;;;;;;;;;;;5037287;28;19919;-78
2022/12/03 17:01:34;;;;;;;;;;;;;;;;;;5030701;28;19964;-78
2022/12/03 17:04:21;;;;;;;;;;;;;;;;;;5030073;28;19917;-79
2022/12/03 17:07:07;;;;;;;;;;;;;;;;;;5029647;28;19921;-78
2022/12/03 17:09:53;;;;;;;;;;;;;;;;;;5013022;28;20396;-79
2022/12/03 17:12:40;;;;;;;;;;;;;;;;;;5027267;28;19921;-78
2022/12/03 17:15:26;;;;;;;;;;;;;;;;;;5027876;28;20432;-76
2022/12/03 17:18:13;;;;;;;;;;;;;;;;;;5032823;28;19923;-78
2022/12/03 17:20:59;;;;;;;;;;;;;;;;;;5037073;28;19925;-78
2022/12/03 17:23:49;;;;;;;;;;;;;;;;;;5039133;28;19916;-78
2022/12/03 17:26:36;;;;;;;;;;;;;;;;;;5039155;28;19920;-78
2022/12/03 17:29:22;;;;;;;;;;;;;;;;;;5040697;28;19927;-77
2022/12/03 17:32:12;;;;;;;;;;;;;;;;;;5042589;28;19920;-80
2022/12/03 17:34:58;;;;;;;;;;;;;;;;;;5040395;28;19920;-78
2022/12/03 17:37:45;;;;;;;;;;;;;;;;;;5038761;28;19913;-77
2022/12/03 17:40:31;;;;;;;;;;;;;;;;;;5042707;28;19913;-77
2022/12/03 17:43:17;;;;;;;;;;;;;;;;;;5037616;28;19912;-77
2022/12/03 17:46:05;;;;;;;;;;;;;;;;;;5036007;28;19925;-78
2022/12/03 17:48:51;;;;;;;;;;;;;;;;;;5036850;28;19913;-77
2022/12/03 17:51:38;;;;;;;;;;;;;;;;;;5037923;28;20261;-79
2022/12/03 17:54:24;;;;;;;;;;;;;;;;;;5043312;28;19913;-78
2022/12/03 17:57:11;;;;;;;;;;;;;;;;;;5031277;28;20282;-80
2022/12/03 18:00:00;;;;;;;;;;;;;;;;;;5033854;28;19932;-80
2022/12/03 18:02:47;;;;;;;;;;;;;;;;;;5035030;28;20364;-79
2022/12/03 18:05:35;;;;;;;;;;;;;;;;;;5036150;28;19913;-79
2022/12/03 18:08:21;;;;;;;;;;;;;;;;;;5015740;28;19931;-78
2022/12/03 18:11:08;;;;;;;;;;;;;;;;;;5023726;28;19936;-78
2022/12/03 18:13:54;;;;;;;;;;;;;;;;;;5037547;28;19917;-78
2022/12/03 18:16:41;;;;;;;;;;;;;;;;;;5039737;28;19925;-78
2022/12/03 18:19:27;;;;;;;;;;;;;;;;;;5035268;28;19913;-78
2022/12/03 18:22:14;;;;;;;;;;;;;;;;;;5035000;28;19924;-79
2022/12/03 18:25:00;;;;;;;;;;;;;;;;;;5045791;28;19917;-78
2022/12/03 18:27:48;;;;;;;;;;;;;;;;;;5051702;28;19912;-78
2022/12/03 18:30:34;;;;;;;;;;;;;;;;;;5026242;28;19920;-77
2022/12/03 18:33:22;;;;;;;;;;;;;;;;;;5033026;28;19912;-77
2022/12/03 18:36:08;;;;;;;;;;;;;;;;;;5049022;28;19916;-84
2022/12/03 18:38:55;;;;;;;;;;;;;;;;;;5041223;28;20336;-80
2022/12/03 18:41:41;;;;;;;;;;;;;;;;;;5036889;28;19917;-82
2022/12/03 18:44:28;;;;;;;;;;;;;;;;;;5038310;28;19893;-81
2022/12/03 18:47:17;;;;;;;;;;;;;;;;;;5050189;28;19928;-84
2022/12/03 18:50:04;;;;;;;;;;;;;;;;;;5042556;28;19913;-80
2022/12/03 18:52:50;;;;;;;;;;;;;;;;;;5042877;28;19913;-81
2022/12/03 18:55:37;;;;;;;;;;;;;;;;;;5025001;28;19913;-75
2022/12/03 18:58:23;;;;;;;;;;;;;;;;;;5030088;28;19917;-76
2022/12/03 19:01:10;;;;;;;;;;;;;;;;;;5038290;28;19923;-77
2022/12/03 19:03:57;;;;;;;;;;;;;;;;;;5045876;28;19917;-75
2022/12/03 19:06:43;;;;;;;;;;;;;;;;;;5026474;28;19925;-76
2022/12/03 19:09:35;;;;;;;;;;;;;;;;;;5039514;28;19913;-81
2022/12/03 19:12:22;;;;;;;;;;;;;;;;;;5032965;28;19924;-78
2022/12/03 19:15:09;;;;;;;;;;;;;;;;;;5043234;28;19910;-80
2022/12/03 19:17:55;;;;;;;;;;;;;;;;;;5031344;28;19913;-79
2022/12/03 19:20:41;;;;;;;;;;;;;;;;;;5043855;28;19917;-79
2022/12/03 19:23:28;;;;;;;;;;;;;;;;;;5042903;28;19923;-81